createdAt,value
2023-04-09T00:00:30.828Z,75.58
2023-04-09T00:02:58.749Z,75.35
2023-04-09T00:05:26.658Z,75.41
2023-04-09T00:07:54.668Z,75.17
2023-04-09T00:10:22.621Z,75.97
2023-04-09T00:12:50.518Z,76.72
2023-04-09T00:15:30.085Z,76.72
2023-04-09T00:18:01.222Z,77.70
2023-04-09T00:20:29.097Z,76.85
2023-04-09T00:22:58.127Z,77.32
2023-04-09T00:25:25.989Z,76.55
2023-04-09T00:27:53.740Z,76.06
2023-04-09T00:30:21.925Z,75.90
2023-04-09T00:32:50.482Z,75.90
2023-04-09T00:35:19.809Z,77.10
2023-04-09T00:37:47.660Z,79.13
2023-04-09T00:40:15.511Z,78.90
2023-04-09T00:42:43.322Z,79.76
2023-04-09T00:45:11.845Z,77.88
2023-04-09T00:47:39.793Z,76.95
2023-04-09T00:50:08.508Z,78.12
2023-04-09T00:52:37.701Z,77.18
2023-04-09T00:55:07.106Z,78.90
2023-04-09T00:57:35.985Z,78.18
2023-04-09T01:00:04.681Z,77.74
2023-04-09T01:02:32.804Z,77.60
2023-04-09T01:05:00.780Z,77.62
2023-04-09T01:07:40.686Z,78.44
2023-04-09T01:10:18.051Z,78.30
2023-04-09T01:12:55.647Z,77.18
2023-04-09T01:15:27.737Z,77.83
2023-04-09T01:18:03.814Z,79.24
2023-04-09T01:20:36.661Z,79.35
2023-04-09T01:23:17.008Z,78.04
2023-04-09T01:25:50.810Z,77.51
2023-04-09T01:28:23.618Z,77.16
2023-04-09T01:30:58.521Z,77.26
2023-04-09T01:33:28.058Z,77.50
2023-04-09T01:35:58.225Z,78.42
2023-04-09T01:38:27.495Z,78.85
2023-04-09T01:40:56.601Z,79.14
2023-04-09T01:43:28.603Z,78.69
2023-04-09T01:45:56.778Z,79.30
2023-04-09T01:48:25.454Z,79.50
2023-04-09T01:50:53.518Z,78.36
2023-04-09T01:53:22.845Z,78.45
2023-04-09T01:55:50.719Z,78.59
2023-04-09T01:58:18.547Z,78.90
2023-04-09T02:00:49.560Z,80.84
2023-04-09T02:03:22.817Z,80.88
2023-04-09T02:05:56.451Z,80.03
2023-04-09T02:08:26.004Z,78.60
2023-04-09T02:10:59.066Z,77.84
2023-04-09T02:13:28.324Z,78.07
2023-04-09T02:16:00.851Z,79.13
2023-04-09T02:18:30.992Z,78.55
2023-04-09T02:20:59.847Z,78.17
2023-04-09T02:23:28.183Z,78.01
2023-04-09T02:25:56.175Z,77.92
2023-04-09T02:28:24.010Z,77.08
2023-04-09T02:30:52.992Z,77.35
2023-04-09T02:33:22.503Z,77.40
2023-04-09T02:35:50.372Z,77.05
2023-04-09T02:38:18.296Z,78.42
2023-04-09T02:40:46.190Z,78.94
2023-04-09T02:43:14.101Z,78.67
2023-04-09T02:45:41.937Z,78.87
2023-04-09T02:48:09.758Z,79.28
2023-04-09T02:50:38.988Z,79.32
2023-04-09T02:53:06.813Z,79.58
2023-04-09T02:55:34.710Z,79.52
2023-04-09T02:58:02.476Z,78.84
2023-04-09T03:00:30.293Z,78.86
2023-04-09T03:02:58.544Z,78.35
2023-04-09T03:05:26.485Z,78.45
2023-04-09T03:07:56.209Z,78.07
2023-04-09T03:10:24.036Z,78.96
2023-04-09T03:12:51.861Z,78.57
2023-04-09T03:15:19.745Z,78.12
2023-04-09T03:17:47.588Z,78.05
2023-04-09T03:20:15.440Z,77.50
2023-04-09T03:22:43.308Z,76.77
2023-04-09T03:25:23.556Z,76.65
2023-04-09T03:27:55.081Z,77.30
2023-04-09T03:30:41.385Z,77.86
2023-04-09T03:33:09.959Z,77.60
2023-04-09T03:35:48.621Z,77.11
2023-04-09T03:38:19.586Z,77.39
2023-04-09T03:40:48.808Z,77.83
2023-04-09T03:43:16.748Z,78.74
2023-04-09T03:45:50.092Z,78.52
2023-04-09T03:48:23.171Z,78.54
2023-04-09T03:50:53.489Z,78.67
2023-04-09T03:53:29.065Z,78.92
2023-04-09T03:56:04.396Z,78.67
2023-04-09T03:58:33.362Z,78.78
2023-04-09T04:01:01.703Z,78.99
2023-04-09T04:03:38.090Z,78.54
2023-04-09T04:06:34.581Z,77.75
2023-04-09T04:09:10.870Z,77.48
2023-04-09T04:11:51.057Z,78.38
2023-04-09T04:14:20.357Z,79.34
2023-04-09T04:16:53.568Z,78.39
2023-04-09T04:19:24.122Z,78.15
2023-04-09T04:21:52.965Z,77.56
2023-04-09T04:24:20.816Z,78.68
2023-04-09T04:26:49.208Z,79.56
2023-04-09T04:29:21.196Z,79.51
2023-04-09T04:31:57.577Z,79.20
2023-04-09T04:34:28.808Z,78.32
2023-04-09T04:37:02.968Z,78.44
2023-04-09T04:39:33.721Z,78.16
2023-04-09T04:42:06.005Z,78.57
2023-04-09T04:44:35.190Z,78.90
2023-04-09T04:47:13.607Z,78.09
2023-04-09T04:49:41.511Z,78.54
2023-04-09T04:52:10.157Z,78.44
2023-04-09T04:54:41.332Z,79.25
2023-04-09T04:57:10.224Z,78.36
2023-04-09T04:59:43.349Z,78.42
2023-04-09T05:02:13.667Z,78.52
2023-04-09T05:05:13.843Z,78.66
2023-04-09T05:07:48.517Z,78.00
2023-04-09T05:10:16.365Z,77.17
2023-04-09T05:12:44.796Z,77.77
2023-04-09T05:15:17.058Z,77.82
2023-04-09T05:17:44.969Z,77.99
2023-04-09T05:20:14.790Z,77.59
2023-04-09T05:23:02.585Z,76.42
2023-04-09T05:25:35.601Z,77.12
2023-04-09T05:28:04.514Z,77.11
2023-04-09T05:30:35.710Z,76.99
2023-04-09T05:33:06.173Z,76.34
2023-04-09T05:35:34.612Z,76.54
2023-04-09T05:38:02.549Z,76.00
2023-04-09T05:40:30.483Z,75.75
2023-04-09T05:42:58.445Z,75.87
2023-04-09T05:45:39.762Z,75.66
2023-04-09T05:48:08.430Z,74.69
2023-04-09T05:50:51.074Z,74.73
2023-04-09T05:53:22.998Z,74.36
2023-04-09T05:55:51.165Z,74.12
2023-04-09T05:58:21.825Z,74.47
2023-04-09T06:00:52.575Z,74.46
2023-04-09T06:03:21.037Z,73.81
2023-04-09T06:05:49.311Z,73.59
2023-04-09T06:08:17.258Z,72.83
2023-04-09T06:10:45.175Z,71.70
2023-04-09T06:13:12.955Z,71.43
2023-04-09T06:15:40.793Z,71.20
2023-04-09T06:18:10.013Z,70.83
2023-04-09T06:20:37.813Z,70.01
2023-04-09T06:23:06.181Z,69.10
2023-04-09T06:25:34.056Z,68.83
2023-04-09T06:28:01.965Z,69.36
2023-04-09T06:30:31.812Z,68.76
2023-04-09T06:32:59.672Z,67.91
2023-04-09T06:35:29.781Z,66.90
2023-04-09T06:37:57.614Z,66.74
2023-04-09T06:40:25.473Z,65.98
2023-04-09T06:42:53.349Z,66.08
2023-04-09T06:45:31.188Z,65.91
2023-04-09T06:47:59.297Z,64.43
2023-04-09T06:50:27.329Z,64.14
2023-04-09T06:52:57.072Z,63.77
2023-04-09T06:55:26.791Z,62.76
2023-04-09T06:57:54.743Z,62.03
2023-04-09T07:00:23.094Z,62.16
2023-04-09T07:02:51.317Z,61.05
2023-04-09T07:05:19.632Z,60.49
2023-04-09T07:07:47.519Z,59.45
2023-04-09T07:10:16.826Z,59.01
2023-04-09T07:12:44.645Z,58.77
2023-04-09T07:15:12.430Z,59.18
2023-04-09T07:17:40.261Z,57.93
2023-04-09T07:20:08.957Z,58.02
2023-04-09T07:22:36.816Z,57.22
2023-04-09T07:25:05.471Z,56.99
2023-04-09T07:27:34.577Z,55.63
2023-04-09T07:30:03.218Z,54.77
2023-04-09T07:32:31.141Z,53.22
2023-04-09T07:34:59.393Z,53.72
2023-04-09T07:37:27.445Z,54.17
2023-04-09T07:39:55.475Z,54.51
2023-04-09T07:42:23.210Z,54.14
2023-04-09T07:44:52.392Z,52.65
2023-04-09T07:47:20.327Z,52.79
2023-04-09T07:49:50.051Z,53.15
2023-04-09T07:52:17.889Z,52.80
2023-04-09T07:54:45.712Z,52.21
2023-04-09T07:57:14.041Z,52.14
2023-04-09T07:59:41.827Z,51.21
2023-04-09T08:02:14.345Z,51.00
2023-04-09T08:04:43.137Z,50.36
2023-04-09T08:07:11.499Z,50.09
2023-04-09T08:09:39.294Z,49.71
2023-04-09T08:12:07.115Z,49.09
2023-04-09T08:14:35.063Z,49.33
2023-04-09T08:17:02.881Z,48.88
2023-04-09T08:19:32.143Z,48.67
2023-04-09T08:22:00.022Z,48.51
2023-04-09T08:24:28.222Z,47.23
2023-04-09T08:26:56.631Z,47.40
2023-04-09T08:29:24.446Z,47.70
2023-04-09T08:31:52.221Z,47.63
2023-04-09T08:34:22.019Z,46.81
2023-04-09T08:36:51.285Z,46.23
2023-04-09T08:39:20.148Z,46.11
2023-04-09T08:41:48.587Z,45.70
2023-04-09T08:44:17.690Z,45.75
2023-04-09T08:46:45.708Z,45.44
2023-04-09T08:49:13.574Z,45.59
2023-04-09T08:51:46.902Z,44.16
2023-04-09T08:54:19.896Z,43.00
2023-04-09T08:56:47.914Z,43.29
2023-04-09T08:59:18.495Z,42.65
2023-04-09T09:01:47.957Z,40.71
2023-04-09T09:04:16.182Z,40.61
2023-04-09T09:06:44.512Z,41.44
2023-04-09T09:09:14.752Z,40.00
2023-04-09T09:11:45.698Z,40.00
2023-04-09T09:14:14.872Z,41.02
2023-04-09T09:16:44.339Z,40.09
2023-04-09T09:19:30.245Z,39.75
2023-04-09T09:21:59.417Z,40.08
2023-04-09T09:24:27.336Z,39.03
2023-04-09T09:26:57.422Z,38.60
2023-04-09T09:29:25.948Z,37.25
2023-04-09T09:31:55.633Z,37.50
2023-04-09T09:34:25.219Z,36.17
2023-04-09T09:36:53.038Z,36.99
2023-04-09T09:39:22.058Z,36.32
2023-04-09T09:42:07.568Z,37.11
2023-04-09T09:44:36.733Z,35.49
2023-04-09T09:47:05.531Z,35.56
2023-04-09T09:49:33.594Z,34.80
2023-04-09T09:52:03.913Z,33.98
2023-04-09T09:54:40.960Z,33.13
2023-04-09T09:57:10.193Z,33.80
2023-04-09T09:59:44.432Z,34.84
2023-04-09T10:02:19.445Z,34.17
2023-04-09T10:04:49.645Z,33.82
2023-04-09T10:07:19.388Z,32.78
2023-04-09T10:09:50.754Z,33.40
2023-04-09T10:12:23.637Z,34.06
2023-04-09T10:14:54.102Z,32.73
2023-04-09T10:17:22.057Z,33.17
2023-04-09T10:20:00.383Z,31.92
2023-04-09T10:22:32.756Z,31.53
2023-04-09T10:25:00.652Z,31.02
2023-04-09T10:27:28.409Z,30.28
2023-04-09T10:29:57.553Z,31.84
2023-04-09T10:32:28.004Z,31.81
2023-04-09T10:34:59.209Z,32.51
2023-04-09T10:37:28.596Z,32.23
2023-04-09T10:39:57.834Z,30.26
2023-04-09T10:42:31.811Z,31.65
2023-04-09T10:45:08.980Z,29.99
2023-04-09T10:47:37.945Z,29.51
2023-04-09T10:50:22.503Z,27.56
2023-04-09T10:52:54.586Z,30.43
2023-04-09T10:55:34.023Z,31.01
2023-04-09T10:58:01.921Z,29.77
2023-04-09T11:00:31.009Z,30.41
2023-04-09T11:03:20.207Z,29.50
2023-04-09T11:05:52.547Z,24.98
2023-04-09T11:08:22.044Z,24.92
2023-04-09T11:10:52.245Z,27.36
2023-04-09T11:13:21.823Z,29.80
2023-04-09T11:15:51.727Z,29.20
2023-04-09T11:18:24.782Z,29.80
2023-04-09T11:20:56.177Z,29.20
2023-04-09T11:23:25.257Z,29.95
2023-04-09T11:25:54.090Z,28.58
2023-04-09T11:28:22.181Z,29.10
2023-04-09T11:30:53.719Z,27.01
2023-04-09T11:33:21.606Z,28.01
2023-04-09T11:35:49.760Z,28.05
2023-04-09T11:38:17.833Z,28.95
2023-04-09T11:40:48.535Z,26.08
2023-04-09T11:43:17.704Z,23.53
2023-04-09T11:45:48.142Z,21.74
2023-04-09T11:48:19.168Z,21.37
2023-04-09T11:50:47.842Z,20.99
2023-04-09T11:53:20.408Z,18.30
2023-04-09T11:55:50.624Z,19.98
2023-04-09T11:58:18.604Z,21.22
2023-04-09T12:00:46.574Z,23.33
2023-04-09T12:03:16.462Z,27.07
2023-04-09T12:05:51.028Z,27.84
2023-04-09T12:08:24.813Z,24.84
2023-04-09T12:10:53.878Z,24.10
2023-04-09T12:13:22.109Z,25.99
2023-04-09T12:15:51.383Z,26.85
2023-04-09T12:18:19.226Z,25.32
2023-04-09T12:20:49.690Z,24.99
2023-04-09T12:23:17.872Z,26.75
2023-04-09T12:25:47.628Z,27.00
2023-04-09T12:28:18.287Z,28.03
2023-04-09T12:30:46.994Z,25.86
2023-04-09T12:33:14.787Z,26.30
2023-04-09T12:35:42.610Z,24.92
2023-04-09T12:38:11.905Z,26.42
2023-04-09T12:40:40.199Z,26.86
2023-04-09T12:43:07.943Z,26.74
2023-04-09T12:45:35.922Z,27.75
2023-04-09T12:48:03.762Z,28.04
2023-04-09T12:50:31.612Z,26.30
2023-04-09T12:52:59.357Z,25.80
2023-04-09T12:55:28.982Z,24.17
2023-04-09T12:57:56.762Z,26.52
2023-04-09T13:00:24.607Z,26.88
2023-04-09T13:02:52.829Z,28.07
2023-04-09T13:05:20.941Z,27.97
2023-04-09T13:07:48.712Z,27.86
2023-04-09T13:10:16.690Z,26.79
2023-04-09T13:12:45.890Z,27.37
2023-04-09T13:15:13.722Z,28.29
2023-04-09T13:17:41.533Z,28.32
2023-04-09T13:20:10.330Z,28.04
2023-04-09T13:22:38.348Z,27.68
2023-04-09T13:25:06.788Z,27.01
2023-04-09T13:27:34.671Z,26.16
2023-04-09T13:30:03.969Z,26.68
2023-04-09T13:32:31.881Z,25.96
2023-04-09T13:34:59.864Z,27.28
2023-04-09T13:37:27.789Z,26.12
2023-04-09T13:39:55.608Z,26.52
2023-04-09T13:42:23.354Z,27.11
2023-04-09T13:44:51.294Z,25.95
2023-04-09T13:47:21.073Z,23.45
2023-04-09T13:49:51.398Z,22.08
2023-04-09T13:52:19.189Z,25.02
2023-04-09T13:54:47.158Z,26.28
2023-04-09T13:57:15.074Z,27.44
2023-04-09T13:59:43.989Z,27.16
2023-04-09T14:02:12.020Z,26.88
2023-04-09T14:04:41.300Z,28.16
2023-04-09T14:07:09.168Z,28.14
2023-04-09T14:09:37.021Z,28.71
2023-04-09T14:12:05.013Z,28.09
2023-04-09T14:14:32.831Z,27.55
2023-04-09T14:17:00.577Z,28.40
2023-04-09T14:19:28.460Z,28.71
2023-04-09T14:21:57.690Z,28.63
2023-04-09T14:24:25.730Z,28.90
2023-04-09T14:26:53.785Z,29.01
2023-04-09T14:29:22.588Z,28.73
2023-04-09T14:31:51.700Z,28.34
2023-04-09T14:34:19.645Z,28.83
2023-04-09T14:36:47.805Z,28.23
2023-04-09T14:39:17.734Z,28.31
2023-04-09T14:41:45.631Z,27.24
2023-04-09T14:44:13.646Z,28.24
2023-04-09T14:46:41.546Z,27.62
2023-04-09T14:49:09.469Z,28.00
2023-04-09T14:51:37.295Z,28.85
2023-04-09T14:54:05.179Z,28.26
2023-04-09T14:56:36.093Z,28.37
2023-04-09T14:59:04.265Z,24.43
2023-04-09T15:01:33.142Z,22.53
2023-04-09T15:04:01.391Z,21.42
2023-04-09T15:06:31.355Z,21.14
2023-04-09T15:08:59.203Z,21.61
2023-04-09T15:11:27.894Z,22.28
2023-04-09T15:13:57.886Z,23.10
2023-04-09T15:16:29.238Z,23.34
2023-04-09T15:18:59.034Z,25.14
2023-04-09T15:21:27.179Z,23.48
2023-04-09T15:23:55.226Z,25.56
2023-04-09T15:26:23.112Z,25.72
2023-04-09T15:28:51.284Z,26.63
2023-04-09T15:31:21.132Z,26.83
2023-04-09T15:33:50.386Z,27.56
2023-04-09T15:36:18.203Z,26.99
2023-04-09T15:38:46.092Z,26.87
2023-04-09T15:41:13.851Z,27.43
2023-04-09T15:43:41.671Z,27.88
2023-04-09T15:46:10.605Z,28.44
2023-04-09T15:48:39.910Z,28.82
2023-04-09T15:51:08.047Z,27.43
2023-04-09T15:53:35.903Z,26.63
2023-04-09T15:56:04.214Z,26.51
2023-04-09T15:58:32.128Z,23.83
2023-04-09T16:01:00.034Z,23.17
2023-04-09T16:03:27.899Z,24.34
2023-04-09T16:05:57.047Z,23.75
2023-04-09T16:08:26.344Z,23.54
2023-04-09T16:10:54.116Z,25.23
2023-04-09T16:13:22.010Z,25.28
2023-04-09T16:15:51.028Z,25.28
2023-04-09T16:18:18.885Z,26.07
2023-04-09T16:20:47.095Z,24.65
2023-04-09T16:23:16.272Z,23.99
2023-04-09T16:25:44.100Z,24.08
2023-04-09T16:28:11.878Z,24.32
2023-04-09T16:30:39.630Z,24.46
2023-04-09T16:33:08.632Z,24.88
2023-04-09T16:35:38.857Z,24.85
2023-04-09T16:38:07.637Z,25.70
2023-04-09T16:40:36.799Z,26.38
2023-04-09T16:43:04.717Z,27.00
2023-04-09T16:45:32.806Z,26.60
2023-04-09T16:48:00.783Z,26.54
2023-04-09T16:50:28.744Z,25.08
2023-04-09T16:52:56.612Z,25.43
2023-04-09T16:55:24.502Z,24.68
2023-04-09T16:57:55.963Z,24.90
2023-04-09T17:00:23.987Z,26.54
2023-04-09T17:02:52.028Z,25.43
2023-04-09T17:05:20.301Z,25.12
2023-04-09T17:07:48.200Z,25.55
2023-04-09T17:10:16.412Z,24.99
2023-04-09T17:12:44.351Z,25.12
2023-04-09T17:15:13.858Z,25.51
2023-04-09T17:17:41.741Z,23.80
2023-04-09T17:20:10.488Z,23.35
2023-04-09T17:22:39.285Z,24.43
2023-04-09T17:25:08.684Z,26.12
2023-04-09T17:27:36.759Z,26.89
2023-04-09T17:30:04.984Z,28.16
2023-04-09T17:32:34.232Z,28.29
2023-04-09T17:35:03.606Z,29.11
2023-04-09T17:37:31.411Z,29.68
2023-04-09T17:39:59.212Z,30.30
2023-04-09T17:42:27.012Z,29.99
2023-04-09T17:44:54.741Z,31.02
2023-04-09T17:47:22.614Z,31.23
2023-04-09T17:49:51.788Z,31.51
2023-04-09T17:52:20.432Z,32.07
2023-04-09T17:54:50.565Z,33.09
2023-04-09T17:57:18.446Z,33.71
2023-04-09T17:59:46.231Z,32.78
2023-04-09T18:02:14.201Z,33.73
2023-04-09T18:04:42.284Z,33.59
2023-04-09T18:07:11.583Z,34.26
2023-04-09T18:09:40.510Z,34.33
2023-04-09T18:12:08.445Z,35.29
2023-04-09T18:14:36.276Z,34.63
2023-04-09T18:17:04.155Z,35.96
2023-04-09T18:19:32.163Z,36.20
2023-04-09T18:22:00.159Z,36.55
2023-04-09T18:24:30.222Z,35.92
2023-04-09T18:26:58.042Z,35.82
2023-04-09T18:29:27.468Z,35.69
2023-04-09T18:31:56.060Z,36.41
2023-04-09T18:34:24.294Z,36.62
2023-04-09T18:36:52.575Z,36.48
2023-04-09T18:39:21.012Z,37.15
2023-04-09T18:41:50.430Z,37.31
2023-04-09T18:44:18.174Z,37.63
2023-04-09T18:46:45.982Z,37.42
2023-04-09T18:49:13.774Z,38.03
2023-04-09T18:51:41.634Z,37.85
2023-04-09T18:54:09.509Z,38.23
2023-04-09T18:56:37.239Z,38.06
2023-04-09T18:59:06.438Z,38.35
2023-04-09T19:01:34.340Z,38.28
2023-04-09T19:04:02.360Z,38.45
2023-04-09T19:06:30.383Z,38.44
2023-04-09T19:08:58.972Z,39.05
2023-04-09T19:11:27.046Z,38.51
2023-04-09T19:13:55.084Z,39.05
2023-04-09T19:16:24.349Z,38.83
2023-04-09T19:18:52.398Z,39.02
2023-04-09T19:21:20.369Z,39.21
2023-04-09T19:23:48.116Z,39.97
2023-04-09T19:26:15.899Z,41.21
2023-04-09T19:28:43.641Z,42.09
2023-04-09T19:31:14.260Z,41.09
2023-04-09T19:33:43.572Z,41.02
2023-04-09T19:36:12.883Z,41.26
2023-04-09T19:38:40.922Z,41.61
2023-04-09T19:41:08.757Z,41.91
2023-04-09T19:43:38.681Z,42.27
2023-04-09T19:46:08.411Z,43.29
2023-04-09T19:48:36.543Z,43.72
2023-04-09T19:51:06.112Z,43.73
2023-04-09T19:53:36.239Z,44.12
2023-04-09T19:56:05.683Z,44.63
2023-04-09T19:58:33.655Z,44.66
2023-04-09T20:01:01.600Z,44.85
2023-04-09T20:03:29.479Z,44.97
2023-04-09T20:05:57.477Z,45.75
2023-04-09T20:08:27.372Z,45.65
2023-04-09T20:10:55.221Z,45.98
2023-04-09T20:13:23.345Z,45.13
2023-04-09T20:15:51.706Z,45.73
2023-04-09T20:18:19.643Z,45.74
2023-04-09T20:20:47.613Z,45.51
2023-04-09T20:23:15.504Z,45.15
2023-04-09T20:25:44.626Z,45.58
2023-04-09T20:28:12.508Z,46.62
2023-04-09T20:30:40.330Z,46.17
2023-04-09T20:33:08.119Z,46.71
2023-04-09T20:35:36.637Z,47.15
2023-04-09T20:38:04.663Z,47.91
2023-04-09T20:40:33.068Z,50.38
2023-04-09T20:43:02.397Z,49.51
2023-04-09T20:45:30.399Z,49.11
2023-04-09T20:47:58.321Z,50.70
2023-04-09T20:50:26.194Z,52.20
2023-04-09T20:52:54.003Z,50.40
2023-04-09T20:55:22.031Z,50.48
2023-04-09T20:57:50.132Z,49.91
2023-04-09T21:00:19.713Z,49.56
2023-04-09T21:02:47.564Z,50.22
2023-04-09T21:05:22.583Z,49.73
2023-04-09T21:07:51.517Z,49.62
2023-04-09T21:10:19.437Z,49.62
2023-04-09T21:12:47.177Z,49.90
2023-04-09T21:15:15.343Z,49.59
2023-04-09T21:17:44.602Z,49.63
2023-04-09T21:20:13.060Z,49.61
2023-04-09T21:22:41.029Z,49.30
2023-04-09T21:25:09.669Z,48.86
2023-04-09T21:27:37.520Z,49.20
2023-04-09T21:30:06.079Z,49.58
2023-04-09T21:32:33.946Z,49.98
2023-04-09T21:35:03.118Z,49.40
2023-04-09T21:37:32.978Z,49.81
2023-04-09T21:40:00.831Z,49.73
2023-04-09T21:42:31.417Z,49.50
2023-04-09T21:44:59.461Z,50.07
2023-04-09T21:47:27.609Z,49.84
2023-04-09T21:49:55.685Z,49.75
2023-04-09T21:52:25.164Z,50.55
2023-04-09T21:54:52.970Z,50.85
2023-04-09T21:57:20.835Z,51.38
2023-04-09T21:59:48.636Z,50.58
2023-04-09T22:02:16.665Z,50.23
2023-04-09T22:04:44.589Z,50.14
2023-04-09T22:07:13.008Z,49.68
2023-04-09T22:09:42.164Z,50.19
2023-04-09T22:12:09.953Z,50.83
2023-04-09T22:14:39.173Z,50.22
2023-04-09T22:17:08.788Z,49.83
2023-04-09T22:19:36.743Z,50.45
2023-04-09T22:22:04.565Z,51.54
2023-04-09T22:24:33.739Z,51.46
2023-04-09T22:27:02.870Z,50.79
2023-04-09T22:29:31.251Z,51.85
2023-04-09T22:31:59.065Z,51.98
2023-04-09T22:34:27.230Z,52.83
2023-04-09T22:36:55.034Z,52.66
2023-04-09T22:39:22.818Z,52.85
2023-04-09T22:41:50.649Z,52.66
2023-04-09T22:44:19.878Z,52.83
2023-04-09T22:46:47.731Z,52.78
2023-04-09T22:49:15.829Z,53.07
2023-04-09T22:51:43.664Z,53.54
2023-04-09T22:54:11.477Z,54.50
2023-04-09T22:56:39.666Z,56.73
2023-04-09T22:59:07.563Z,57.31
2023-04-09T23:01:36.826Z,57.42
2023-04-09T23:04:04.768Z,57.71
2023-04-09T23:06:32.756Z,58.46
2023-04-09T23:09:00.939Z,57.89
2023-04-09T23:11:28.915Z,57.28
2023-04-09T23:13:56.653Z,55.82
2023-04-09T23:16:24.506Z,55.34
2023-04-09T23:18:53.974Z,54.46
2023-04-09T23:21:22.069Z,54.16
2023-04-09T23:23:49.853Z,53.98
2023-04-09T23:26:17.592Z,53.65
2023-04-09T23:28:45.403Z,53.64
2023-04-09T23:31:13.229Z,53.79
2023-04-09T23:33:41.101Z,54.25
2023-04-09T23:36:10.872Z,54.52
2023-04-09T23:38:40.285Z,54.32
2023-04-09T23:41:08.249Z,55.42
2023-04-09T23:43:35.996Z,55.22
2023-04-09T23:46:03.784Z,55.50
2023-04-09T23:48:31.545Z,55.33
2023-04-09T23:50:59.324Z,56.13
2023-04-09T23:53:28.435Z,57.82
2023-04-09T23:55:56.187Z,56.69
2023-04-09T23:58:24.042Z,57.55
